Nearby METAR Reports

 

KIND - Indianapolis, Indiana, USA
Distance from station: SW 6mi, 9km
Updated: Feb 04 2023 12:54am
Few Clouds
Few Clouds
 Wind from ESE
Wind: ESE 8 mph , 13 km/h
Temperature: 16°F , -9°C
Wind Chill: 5°F , -15°C
Dew Point: 7°F , -14°C
Humidity: 67%
Barometer: 30.51 inHg , 1033.2 hPa
Clouds: Few Clouds
Visibility: 10 miles , 16 km
Cloud details: Few Clouds 20000 ft
2023/02/04 05:54 KIND 040554Z 12007KT 10SM FEW200 M09/M14 A3051 RMK AO2 SLP346 T10941144 11078 21094 56010
KEYE - Indianapolis, Indiana, USA
Distance from station: NW 5mi, 8km
Updated: Feb 04 2023 12:53am

 Wind from SE
Wind: SE 6 mph , 9 km/h
Temperature: 16°F , -9°C
Wind Chill: 7°F , -14°C
Dew Point: 7°F , -14°C
Humidity: 67%
Barometer: 30.50 inHg , 1032.8 hPa
Visibility: 10 miles , 16 km
2023/02/04 05:53 KEYE 040553Z AUTO 13005KT 10SM M09/M14 A3050 RMK AO2 SLP341 T10891144 11072 21094 $
 
KTYQ - Indianapolis Exc, Indiana, USA
Distance from station: N 17mi, 28km
Updated: Feb 04 2023 1:35am
Clear
Clear
 Wind from SSE
Wind: SSE 5 mph , 7 km/h
Temperature: 14°F , -10°C
Wind Chill: 6°F , -14°C
Dew Point: 7°F , -14°C
Humidity: 73%
Barometer: 30.49 inHg , 1032.5 hPa
Clouds: Clear
Visibility: 10 miles , 16 km
2023/02/04 06:35 KTYQ 040635Z AUTO 15004KT 10SM CLR M10/M14 A3049 RMK AO2 T11041137
KGEZ - Shelbyville, Indiana, USA
Distance from station: ESE 27mi, 43km
Updated: Feb 04 2023 12:53am
Clear
Clear
 Wind from ESE
Wind: ESE 6 mph , 9 km/h
Temperature: 14°F , -10°C
Wind Chill: 5°F , -15°C
Dew Point: 7°F , -14°C
Humidity: 73%
Barometer: 30.52 inHg , 1033.5 hPa
Clouds: Clear
Visibility: 10 miles , 16 km
2023/02/04 05:53 KGEZ 040553Z AUTO 11005KT 10SM CLR M10/M14 A3052 RMK AO2 SLP348 T11001139 11067 21106 56006
 
KAID - Anderson Municip, Indiana, USA
Distance from station: NE 40mi, 64km
Updated: Feb 04 2023 1:55am
Partly Cloudy
Partly Cloudy
 Wind from SSE
Wind: SSE 3 mph , 6 km/h
Temperature: 12°F , -11°C
Dew Point: 5°F , -15°C
Humidity: 73%
Barometer: 30.50 inHg , 1032.8 hPa
Clouds: Partly Cloudy
Visibility: 10 miles , 16 km
Cloud details: Partly Cloudy 6500 ft
2023/02/04 06:55 KAID 040655Z AUTO 15003KT 10SM SCT065 M11/M15 A3050 RMK AO2 T11061146
KBAK - Columbus/Balkala, Indiana, USA
Distance from station: SSE 40mi, 64km
Updated: Feb 03 2023 9:50pm
NOT Current
Clear
Clear
 Wind from calm
Wind: Calm
Temperature: 16°F , -9°C
Dew Point: 9°F , -13°C
Humidity: 73%
Barometer: 30.56 inHg , 1034.9 hPa
Clouds: Clear
Visibility: 10 miles , 16 km
2023/02/04 02:50 KBAK 040250Z 00000KT 10SM CLR M09/M13 A3056 RMK LAST
 
KBMG - Bloomington, Indiana, USA
Distance from station: SSW 48mi, 78km
Updated: Feb 04 2023 12:53am
Clear
Clear
 Wind from calm
Wind: Calm
Temperature: 16°F , -9°C
Dew Point: 7°F , -14°C
Humidity: 67%
Barometer: 30.50 inHg , 1032.8 hPa
Clouds: Clear
Visibility: 10 miles , 16 km
2023/02/04 05:53 KBMG 040553Z AUTO 00000KT 10SM CLR M09/M14 A3050 RMK AO2 SLP341 T10941139 11061 21100 58009
KOKK - Kokomo, Indiana, USA
Distance from station: N 53mi, 85km
Updated: Feb 04 2023 12:56am
Partly Cloudy
Partly Cloudy
 Wind from ESE
Wind: ESE 6 mph , 9 km/h
Temperature: 12°F , -11°C
Wind Chill: 2°F , -17°C
Dew Point: 9°F , -13°C
Humidity: 85%
Barometer: 30.51 inHg , 1033.2 hPa
Clouds: Partly Cloudy
Visibility: 10 miles , 16 km
Cloud details: Partly Cloudy 6500 ft
2023/02/04 05:56 KOKK 040556Z AUTO 12005KT 10SM SCT065 M11/M13 A3051 RMK AO2 SLP350 6//// T11111128 11089 21117 56011 FZRANO PNO $